Time;durP1;ratioP1;P1;durP2;ratioP2;P2;SDS_P1;SDS_P2;PMS_P1;PMS_P2;Temp;Humidity;BMP_temperature;BMP_pressure;BME280_temperature;BME280_humidity;BME280_pressure;Samples;Min_cycle;Max_cycle;Signal;HPM_P1;HPM_P2
2022/12/05 00:00:37;;;;;;;;;;;4.10;99.90;;;;;;5017683;28;19968;-79
2022/12/05 00:03:06;;;;;;;;;;;4.10;99.90;;;;;;5002391;28;19925;-80
2022/12/05 00:05:33;;;;;;;;;;;4.20;99.90;;;;;;5031266;28;20419;-80
2022/12/05 00:07:58;;;;;;;;;;;4.20;99.90;;;;;;4988965;28;19935;-82
2022/12/05 00:11:25;;;;;;;;;;;4.20;99.90;;;;;;4999919;28;19925;-80
2022/12/05 00:14:03;;;;;;;;;;;4.20;99.90;;;;;;4981585;28;20411;-80
2022/12/05 00:16:49;;;;;;;;;;;4.10;99.90;;;;;;5007917;28;19915;-80
2022/12/05 00:19:33;;;;;;;;;;;4.20;99.90;;;;;;4994475;28;19918;-80
2022/12/05 00:22:00;;;;;;;;;;;4.20;99.90;;;;;;4966885;28;20044;-83
2022/12/05 00:24:26;;;;;;;;;;;4.20;99.90;;;;;;4984618;28;20407;-80
2022/12/05 00:26:59;;;;;;;;;;;4.20;99.90;;;;;;4983320;28;19938;-80
2022/12/05 00:32:16;;;;;;;;;;;4.20;99.90;;;;;;5005329;28;19917;-80
2022/12/05 00:34:42;;;;;;;;;;;4.30;99.90;;;;;;5004841;28;20391;-79
2022/12/05 00:37:14;;;;;;;;;;;4.20;99.90;;;;;;4969753;28;19999;-80
2022/12/05 00:39:48;;;;;;;;;;;4.30;99.90;;;;;;5002293;28;19968;-79
2022/12/05 00:42:21;;;;;;;;;;;4.30;99.90;;;;;;5003951;28;20012;-80
2022/12/05 00:44:49;;;;;;;;;;;4.30;99.90;;;;;;5018923;28;20355;-80
2022/12/05 00:47:21;;;;;;;;;;;4.30;99.90;;;;;;5016905;28;19917;-80
2022/12/05 00:50:00;;;;;;;;;;;4.30;99.90;;;;;;5030482;28;20295;-80
2022/12/05 00:52:37;;;;;;;;;;;4.40;99.90;;;;;;5002646;28;19921;-80
2022/12/05 00:55:06;;;;;;;;;;;4.40;99.90;;;;;;5013893;28;19917;-80
2022/12/05 00:57:42;;;;;;;;;;;4.40;99.90;;;;;;5014811;28;20316;-79
2022/12/05 01:00:50;;;;;;;;;;;4.40;99.90;;;;;;5013318;28;19917;-80
2022/12/05 01:03:35;;;;;;;;;;;4.40;99.90;;;;;;5014613;28;19943;-80
2022/12/05 01:06:00;;;;;;;;;;;4.40;99.90;;;;;;5009725;28;19949;-79
2022/12/05 01:08:28;;;;;;;;;;;4.50;99.90;;;;;;5014794;28;19924;-80
2022/12/05 01:11:29;;;;;;;;;;;4.50;99.90;;;;;;5009448;28;20012;-80
2022/12/05 01:14:09;;;;;;;;;;;4.50;99.90;;;;;;5010615;28;19951;-80
2022/12/05 01:16:55;;;;;;;;;;;4.50;99.90;;;;;;5018065;28;20310;-80
2022/12/05 01:19:26;;;;;;;;;;;4.50;99.90;;;;;;5033920;28;20374;-80
2022/12/05 01:21:54;;;;;;;;;;;4.50;99.90;;;;;;5014764;28;20348;-80
2022/12/05 01:24:20;;;;;;;;;;;4.50;99.90;;;;;;5031394;28;19921;-79
2022/12/05 01:26:45;;;;;;;;;;;4.50;99.90;;;;;;5016071;28;20128;-80
2022/12/05 01:29:20;;;;;;;;;;;4.60;99.90;;;;;;5032148;28;19965;-79
2022/12/05 01:31:53;;;;;;;;;;;4.50;99.90;;;;;;5015020;28;19998;-80
2022/12/05 01:34:20;;;;;;;;;;;4.50;99.90;;;;;;5012493;28;19972;-86
2022/12/05 01:37:01;;;;;;;;;;;4.50;99.90;;;;;;5016239;28;19929;-84
2022/12/05 01:39:29;;;;;;;;;;;4.50;99.90;;;;;;5021950;28;19928;-79
2022/12/05 01:41:55;;;;;;;;;;;4.50;99.90;;;;;;5020176;28;19925;-80
2022/12/05 01:44:39;;;;;;;;;;;4.50;99.90;;;;;;5019294;28;19923;-81
2022/12/05 01:47:05;;;;;;;;;;;4.50;99.90;;;;;;5035172;28;19972;-79
2022/12/05 01:49:38;;;;;;;;;;;4.50;99.90;;;;;;5021234;28;19965;-80
2022/12/05 01:52:27;;;;;;;;;;;4.50;99.90;;;;;;5017585;28;20365;-81
2022/12/05 01:54:55;;;;;;;;;;;4.50;99.90;;;;;;5020422;28;19921;-80
2022/12/05 01:57:22;;;;;;;;;;;4.50;99.90;;;;;;5013293;28;19929;-82
2022/12/05 01:59:54;;;;;;;;;;;4.50;99.90;;;;;;5018326;28;19944;-80
2022/12/05 02:02:21;;;;;;;;;;;4.50;99.90;;;;;;4999635;28;20375;-80
2022/12/05 02:05:09;;;;;;;;;;;4.50;99.90;;;;;;5023080;28;19929;-86
2022/12/05 02:07:44;;;;;;;;;;;4.50;99.90;;;;;;5016841;28;19992;-80
2022/12/05 02:10:21;;;;;;;;;;;4.50;99.90;;;;;;5033727;28;20019;-79
2022/12/05 02:12:59;;;;;;;;;;;4.50;99.90;;;;;;5016698;28;19984;-83
2022/12/05 02:15:46;;;;;;;;;;;4.50;99.90;;;;;;5019413;28;20056;-80
2022/12/05 02:18:39;;;;;;;;;;;4.50;99.90;;;;;;5014508;28;19925;-81
2022/12/05 02:21:25;;;;;;;;;;;4.60;99.90;;;;;;5018902;28;20287;-80
2022/12/05 02:23:56;;;;;;;;;;;4.50;99.90;;;;;;5023523;28;19924;-79
2022/12/05 02:26:48;;;;;;;;;;;4.50;99.90;;;;;;5018198;28;20012;-79
2022/12/05 02:29:29;;;;;;;;;;;4.50;99.90;;;;;;5020487;28;19940;-79
2022/12/05 02:32:03;;;;;;;;;;;4.50;99.90;;;;;;5021000;28;19939;-80
2022/12/05 02:34:36;;;;;;;;;;;4.50;99.90;;;;;;5022817;28;20363;-79
2022/12/05 02:37:11;;;;;;;;;;;4.50;99.90;;;;;;5023314;28;20485;-79
2022/12/05 02:39:53;;;;;;;;;;;4.50;99.90;;;;;;5019229;28;20014;-80
2022/12/05 02:42:21;;;;;;;;;;;4.50;99.90;;;;;;5009184;28;19940;-80
2022/12/05 02:45:15;;;;;;;;;;;4.50;99.90;;;;;;5036546;28;19928;-79
2022/12/05 02:47:46;;;;;;;;;;;4.50;99.90;;;;;;5082294;28;19916;-80
2022/12/05 02:50:18;;;;;;;;;;;4.50;99.90;;;;;;5076238;28;19938;-80
2022/12/05 02:53:05;;;;;;;;;;;4.50;99.90;;;;;;5075861;28;19916;-81
2022/12/05 02:55:49;;;;;;;;;;;4.60;99.90;;;;;;5056538;28;20268;-82
2022/12/05 02:58:20;;;;;;;;;;;4.60;99.90;;;;;;5071185;28;19929;-81
2022/12/05 03:01:05;;;;;;;;;;;4.60;99.90;;;;;;5073667;28;20461;-80
2022/12/05 03:03:43;;;;;;;;;;;4.60;99.90;;;;;;5075594;28;19969;-80
2022/12/05 03:06:15;;;;;;;;;;;4.60;99.90;;;;;;5046889;28;19916;-79
2022/12/05 03:09:01;;;;;;;;;;;4.60;99.90;;;;;;5060870;28;19920;-80
2022/12/05 03:11:39;;;;;;;;;;;4.60;99.90;;;;;;5058254;28;19923;-82
2022/12/05 03:14:08;;;;;;;;;;;4.60;99.90;;;;;;5074373;28;20003;-80
2022/12/05 03:16:37;;;;;;;;;;;4.60;99.90;;;;;;5064696;28;19920;-80
2022/12/05 03:19:11;;;;;;;;;;;4.50;99.90;;;;;;5034846;28;19996;-79
2022/12/05 03:22:03;;;;;;;;;;;4.60;99.90;;;;;;4991441;28;20268;-81
2022/12/05 03:24:30;;;;;;;;;;;4.70;99.90;;;;;;5012564;28;20288;-79
2022/12/05 03:27:07;;;;;;;;;;;4.70;99.90;;;;;;5014707;28;20354;-83
2022/12/05 03:30:00;;;;;;;;;;;4.70;99.90;;;;;;5013721;28;19917;-79
2022/12/05 03:32:38;;;;;;;;;;;4.70;99.90;;;;;;5016244;28;19952;-82
2022/12/05 03:35:08;;;;;;;;;;;4.70;99.90;;;;;;5012986;28;19979;-80
2022/12/05 03:38:01;;;;;;;;;;;4.70;99.90;;;;;;5017257;28;19920;-79
2022/12/05 03:40:35;;;;;;;;;;;4.70;99.90;;;;;;5019432;28;19924;-84
2022/12/05 03:43:11;;;;;;;;;;;4.80;99.90;;;;;;5014586;28;19952;-80
2022/12/05 03:45:48;;;;;;;;;;;4.80;99.90;;;;;;5018007;28;19917;-80
2022/12/05 03:48:30;;;;;;;;;;;4.70;99.90;;;;;;5016640;28;20004;-80
2022/12/05 03:53:57;;;;;;;;;;;4.80;99.90;;;;;;5020135;28;20340;-80
2022/12/05 03:56:28;;;;;;;;;;;4.80;99.90;;;;;;5019171;28;19929;-84
2022/12/05 03:59:14;;;;;;;;;;;4.80;99.90;;;;;;5020113;28;19917;-82
2022/12/05 04:01:41;;;;;;;;;;;4.90;99.90;;;;;;5012152;28;20020;-80
2022/12/05 04:04:24;;;;;;;;;;;4.90;99.90;;;;;;5026877;28;19943;-79
2022/12/05 04:07:12;;;;;;;;;;;4.90;99.90;;;;;;5013952;28;20299;-80
2022/12/05 04:09:45;;;;;;;;;;;4.90;99.90;;;;;;5014016;28;19917;-80
2022/12/05 04:12:53;;;;;;;;;;;4.90;99.90;;;;;;5013484;28;19920;-80
2022/12/05 04:17:02;;;;;;;;;;;4.90;99.90;;;;;;5001762;28;19972;-80
2022/12/05 04:18:29;;;;;;;;;;;4.90;99.90;;;;;;5016444;28;20067;-79
2022/12/05 04:26:43;;;;;;;;;;;5.00;99.90;;;;;;5015671;28;19951;-80
2022/12/05 04:29:25;;;;;;;;;;;4.90;99.90;;;;;;5012758;28;20008;-80
2022/12/05 04:31:57;;;;;;;;;;;5.00;99.90;;;;;;5017309;28;19967;-79
2022/12/05 04:34:28;;;;;;;;;;;5.00;99.90;;;;;;4992422;28;20360;-80
2022/12/05 04:37:05;;;;;;;;;;;5.00;99.90;;;;;;5014371;28;20013;-81
2022/12/05 04:39:45;;;;;;;;;;;5.00;99.90;;;;;;5013533;28;19917;-79
2022/12/05 04:42:19;;;;;;;;;;;5.00;99.90;;;;;;5026298;28;19916;-81
2022/12/05 04:44:49;;;;;;;;;;;5.10;99.90;;;;;;5020151;28;19961;-86
2022/12/05 04:47:17;;;;;;;;;;;5.10;99.90;;;;;;5018267;28;19917;-80
2022/12/05 04:49:43;;;;;;;;;;;5.10;99.90;;;;;;5010847;28;19921;-80
2022/12/05 04:52:11;;;;;;;;;;;5.10;99.90;;;;;;4999957;28;19917;-79
2022/12/05 04:54:43;;;;;;;;;;;5.10;99.90;;;;;;5014605;28;19917;-79
2022/12/05 04:57:15;;;;;;;;;;;5.10;99.90;;;;;;5030327;28;19928;-81
2022/12/05 04:59:45;;;;;;;;;;;5.10;99.90;;;;;;5017778;28;19948;-80
2022/12/05 05:02:14;;;;;;;;;;;5.20;99.90;;;;;;5019654;28;19928;-79
2022/12/05 05:04:50;;;;;;;;;;;5.10;99.90;;;;;;5024142;28;19940;-83
2022/12/05 05:07:21;;;;;;;;;;;5.10;99.90;;;;;;5009140;28;19940;-80
2022/12/05 05:09:51;;;;;;;;;;;5.10;99.90;;;;;;4978974;28;19925;-83
2022/12/05 05:12:22;;;;;;;;;;;5.10;99.90;;;;;;4941545;28;20396;-80
2022/12/05 05:14:48;;;;;;;;;;;5.10;99.90;;;;;;4981939;28;19925;-80
2022/12/05 05:17:13;;;;;;;;;;;5.10;99.90;;;;;;4977380;28;19917;-83
2022/12/05 05:19:39;;;;;;;;;;;5.20;99.90;;;;;;4955979;28;20305;-81
2022/12/05 05:22:05;;;;;;;;;;;5.10;99.90;;;;;;4971054;28;19990;-80
2022/12/05 05:24:30;;;;;;;;;;;5.20;99.90;;;;;;4963245;28;19980;-80
2022/12/05 05:26:56;;;;;;;;;;;5.20;99.90;;;;;;4954487;28;20300;-81
2022/12/05 05:29:27;;;;;;;;;;;5.20;99.90;;;;;;4980977;28;20289;-85
2022/12/05 05:31:52;;;;;;;;;;;5.20;99.90;;;;;;4974934;28;19918;-81
2022/12/05 05:34:18;;;;;;;;;;;5.20;99.90;;;;;;4952724;28;19922;-81
2022/12/05 05:36:43;;;;;;;;;;;5.20;99.90;;;;;;4966678;28;20373;-81
2022/12/05 05:39:13;;;;;;;;;;;5.20;99.90;;;;;;4980607;28;19922;-81
2022/12/05 05:41:42;;;;;;;;;;;5.20;99.90;;;;;;5007806;28;19921;-81
2022/12/05 05:44:09;;;;;;;;;;;5.20;99.90;;;;;;5016717;28;19921;-81
2022/12/05 05:46:35;;;;;;;;;;;5.20;99.90;;;;;;5034131;28;19952;-81
2022/12/05 05:49:01;;;;;;;;;;;5.20;99.90;;;;;;5016870;28;19929;-80
2022/12/05 05:51:28;;;;;;;;;;;5.30;99.90;;;;;;5015018;28;19917;-82
2022/12/05 05:54:02;;;;;;;;;;;5.30;99.90;;;;;;5032198;28;19916;-80
2022/12/05 05:56:28;;;;;;;;;;;5.20;99.90;;;;;;5033072;28;19925;-84
2022/12/05 05:58:58;;;;;;;;;;;5.30;99.90;;;;;;5039399;28;20407;-81
2022/12/05 06:01:24;;;;;;;;;;;5.20;99.90;;;;;;5041879;28;19963;-80
2022/12/05 06:03:51;;;;;;;;;;;5.20;99.90;;;;;;5017577;28;19921;-81
2022/12/05 06:06:17;;;;;;;;;;;5.30;99.90;;;;;;5020850;28;19935;-84
2022/12/05 06:08:46;;;;;;;;;;;5.20;99.90;;;;;;5037663;28;19959;-81
2022/12/05 06:11:20;;;;;;;;;;;5.30;99.90;;;;;;5018216;28;19952;-81
2022/12/05 06:13:46;;;;;;;;;;;5.30;99.90;;;;;;5018081;28;19916;-84
2022/12/05 06:16:13;;;;;;;;;;;5.20;99.90;;;;;;5018764;28;19923;-81
2022/12/05 06:18:39;;;;;;;;;;;5.20;99.90;;;;;;5035840;28;20378;-80
2022/12/05 06:21:07;;;;;;;;;;;5.20;99.90;;;;;;5008355;28;19925;-81
2022/12/05 06:23:35;;;;;;;;;;;5.20;99.90;;;;;;5035376;28;20507;-84
2022/12/05 06:26:02;;;;;;;;;;;5.20;99.90;;;;;;5036882;28;19964;-81
2022/12/05 06:28:28;;;;;;;;;;;5.20;99.90;;;;;;5035734;28;19916;-80
2022/12/05 06:30:53;;;;;;;;;;;5.30;99.90;;;;;;5008175;28;19928;-80
2022/12/05 06:33:19;;;;;;;;;;;5.20;99.90;;;;;;5023785;28;20469;-81
2022/12/05 06:35:45;;;;;;;;;;;5.20;99.90;;;;;;5031215;28;20043;-83
2022/12/05 06:38:17;;;;;;;;;;;5.20;99.90;;;;;;5038093;28;19917;-83
2022/12/05 06:40:43;;;;;;;;;;;5.30;99.90;;;;;;5031423;28;19921;-82
2022/12/05 06:43:09;;;;;;;;;;;5.30;99.90;;;;;;5031604;28;19932;-81
2022/12/05 06:45:37;;;;;;;;;;;5.30;99.90;;;;;;5032563;28;20003;-81
2022/12/05 06:48:03;;;;;;;;;;;5.30;99.90;;;;;;5010934;28;19936;-84
2022/12/05 06:50:30;;;;;;;;;;;5.30;99.90;;;;;;5014089;28;19927;-81
2022/12/05 06:52:56;;;;;;;;;;;5.30;99.90;;;;;;5028525;28;20371;-81
2022/12/05 06:55:27;;;;;;;;;;;5.30;99.90;;;;;;5011936;28;20453;-81
2022/12/05 06:57:52;;;;;;;;;;;5.30;99.90;;;;;;5020378;28;21519;-80
2022/12/05 07:03:02;;;;;;;;;;;5.30;99.90;;;;;;5026893;28;19921;-80
2022/12/05 07:05:28;;;;;;;;;;;5.30;99.90;;;;;;5017737;28;19929;-80
2022/12/05 07:07:54;;;;;;;;;;;5.30;99.90;;;;;;5020583;28;20327;-80
2022/12/05 07:10:19;;;;;;;;;;;5.30;99.90;;;;;;5010999;28;19921;-80
2022/12/05 07:12:46;;;;;;;;;;;5.30;99.90;;;;;;5020712;28;19960;-80
2022/12/05 07:15:12;;;;;;;;;;;5.30;99.90;;;;;;5041574;28;20376;-80
2022/12/05 07:17:44;;;;;;;;;;;5.30;99.90;;;;;;5013355;28;19940;-81
2022/12/05 07:20:16;;;;;;;;;;;5.20;99.90;;;;;;5019112;28;20368;-80
2022/12/05 07:22:43;;;;;;;;;;;5.20;99.90;;;;;;5040110;28;19956;-81
2022/12/05 07:25:09;;;;;;;;;;;5.20;99.90;;;;;;5020726;28;20364;-80
2022/12/05 07:27:34;;;;;;;;;;;5.20;99.90;;;;;;5033846;28;19940;-82
2022/12/05 07:30:06;;;;;;;;;;;5.30;99.90;;;;;;5025983;28;20016;-80
2022/12/05 07:32:40;;;;;;;;;;;5.30;99.90;;;;;;4997209;28;20284;-80
2022/12/05 07:35:05;;;;;;;;;;;5.20;99.90;;;;;;4995871;28;19921;-80
2022/12/05 07:37:32;;;;;;;;;;;5.30;99.90;;;;;;5012717;28;19922;-79
2022/12/05 07:40:05;;;;;;;;;;;5.30;99.90;;;;;;5014207;28;19947;-81
2022/12/05 07:42:30;;;;;;;;;;;5.30;99.90;;;;;;5012538;28;19978;-83
2022/12/05 07:44:56;;;;;;;;;;;5.30;99.90;;;;;;5006984;28;20384;-80
2022/12/05 07:47:28;;;;;;;;;;;5.30;99.90;;;;;;5016407;28;19929;-81
2022/12/05 07:49:54;;;;;;;;;;;5.30;99.90;;;;;;5032915;28;20373;-80
2022/12/05 07:52:19;;;;;;;;;;;5.30;99.90;;;;;;5031918;28;19925;-80
2022/12/05 07:54:45;;;;;;;;;;;5.30;99.90;;;;;;5032341;28;19928;-80
2022/12/05 07:57:11;;;;;;;;;;;5.30;99.90;;;;;;4991096;28;20404;-80
2022/12/05 07:59:36;;;;;;;;;;;5.40;99.90;;;;;;5012287;28;20030;-81
2022/12/05 08:02:03;;;;;;;;;;;5.30;99.90;;;;;;5013004;28;20048;-80
2022/12/05 08:04:33;;;;;;;;;;;5.30;99.90;;;;;;5013655;28;19925;-80
2022/12/05 08:06:59;;;;;;;;;;;5.30;99.90;;;;;;5015974;28;20324;-80
2022/12/05 08:09:24;;;;;;;;;;;5.30;99.90;;;;;;5011714;28;19921;-80
2022/12/05 08:11:50;;;;;;;;;;;5.40;99.90;;;;;;5012126;28;19929;-81
2022/12/05 08:14:16;;;;;;;;;;;5.40;99.90;;;;;;5028725;28;20032;-81
2022/12/05 08:16:47;;;;;;;;;;;5.40;99.90;;;;;;5012686;28;21106;-80
2022/12/05 08:19:15;;;;;;;;;;;5.40;99.90;;;;;;5035578;28;20253;-79
2022/12/05 08:21:41;;;;;;;;;;;5.40;99.90;;;;;;5012912;28;19991;-80
2022/12/05 08:24:07;;;;;;;;;;;5.40;99.90;;;;;;4995565;28;20365;-82
2022/12/05 08:26:34;;;;;;;;;;;5.40;99.90;;;;;;4995511;28;20233;-80
2022/12/05 08:29:10;;;;;;;;;;;5.40;99.90;;;;;;5010852;28;19929;-80
2022/12/05 08:31:40;;;;;;;;;;;5.40;99.90;;;;;;5015452;28;19921;-81
2022/12/05 08:34:06;;;;;;;;;;;5.40;99.90;;;;;;5032832;28;19925;-77
2022/12/05 08:36:32;;;;;;;;;;;5.40;99.90;;;;;;5015279;28;19987;-77
2022/12/05 08:38:58;;;;;;;;;;;5.40;99.90;;;;;;5014089;28;19921;-78
2022/12/05 08:41:28;;;;;;;;;;;5.50;99.90;;;;;;5034017;28;20276;-79
2022/12/05 08:44:07;;;;;;;;;;;5.40;99.90;;;;;;5035236;28;19925;-80
2022/12/05 08:46:33;;;;;;;;;;;5.40;99.90;;;;;;5038608;28;19944;-79
2022/12/05 08:48:59;;;;;;;;;;;5.50;99.90;;;;;;5027964;28;20376;-81
2022/12/05 08:51:25;;;;;;;;;;;5.40;99.90;;;;;;5032532;28;19921;-80
2022/12/05 08:53:52;;;;;;;;;;;5.60;99.90;;;;;;5017015;28;19922;-78
2022/12/05 08:56:18;;;;;;;;;;;5.50;99.90;;;;;;5015771;28;19932;-77
2022/12/05 08:58:46;;;;;;;;;;;5.50;99.90;;;;;;5015735;28;19968;-79
2022/12/05 09:01:32;;;;;;;;;;;5.50;99.90;;;;;;5015121;28;19917;-78
2022/12/05 09:03:59;;;;;;;;;;;5.50;99.90;;;;;;5016795;28;19929;-78
2022/12/05 09:06:25;;;;;;;;;;;5.50;99.90;;;;;;4983234;28;19925;-79
2022/12/05 09:08:54;;;;;;;;;;;5.50;99.90;;;;;;5015159;28;19928;-79
2022/12/05 09:11:22;;;;;;;;;;;5.50;99.90;;;;;;5032615;28;19940;-79
2022/12/05 09:13:53;;;;;;;;;;;5.50;99.90;;;;;;5017847;28;19928;-81
2022/12/05 09:16:20;;;;;;;;;;;5.50;99.90;;;;;;5015560;28;19925;-81
2022/12/05 09:18:46;;;;;;;;;;;5.50;99.90;;;;;;5015160;28;19925;-81
2022/12/05 09:21:19;;;;;;;;;;;5.50;99.90;;;;;;5015039;28;19932;-81
2022/12/05 09:23:51;;;;;;;;;;;5.50;99.90;;;;;;5015467;28;19944;-80
2022/12/05 09:26:22;;;;;;;;;;;5.40;99.90;;;;;;5031522;28;19921;-80
2022/12/05 09:28:47;;;;;;;;;;;5.40;99.90;;;;;;5016547;28;19928;-81
2022/12/05 09:31:14;;;;;;;;;;;5.40;99.90;;;;;;5015540;28;19921;-82
2022/12/05 09:33:40;;;;;;;;;;;5.40;99.90;;;;;;5034929;28;19928;-81
2022/12/05 09:36:07;;;;;;;;;;;5.40;99.90;;;;;;5051683;28;19925;-81
2022/12/05 09:38:33;;;;;;;;;;;5.40;99.90;;;;;;5035949;28;19920;-82
2022/12/05 09:41:17;;;;;;;;;;;5.40;99.90;;;;;;5050568;28;20292;-80
2022/12/05 09:43:59;;;;;;;;;;;5.40;99.90;;;;;;5019833;28;19948;-77
2022/12/05 09:46:24;;;;;;;;;;;5.50;99.90;;;;;;5034368;28;19928;-78
2022/12/05 09:48:54;;;;;;;;;;;5.40;99.90;;;;;;5036412;28;19929;-78
2022/12/05 09:51:20;;;;;;;;;;;5.40;99.90;;;;;;5016637;28;19929;-78
2022/12/05 09:53:47;;;;;;;;;;;5.40;99.90;;;;;;5014734;28;20017;-78
2022/12/05 09:56:31;;;;;;;;;;;5.40;99.90;;;;;;5015824;28;20019;-78
2022/12/05 09:58:59;;;;;;;;;;;5.50;99.90;;;;;;4998273;28;19926;-79
2022/12/05 10:01:34;;;;;;;;;;;5.40;99.90;;;;;;5014419;28;19975;-79
2022/12/05 10:04:03;;;;;;;;;;;5.40;99.90;;;;;;5034481;28;19921;-80
2022/12/05 10:06:33;;;;;;;;;;;5.40;99.90;;;;;;5033905;28;20425;-79
2022/12/05 10:09:18;;;;;;;;;;;5.40;99.90;;;;;;5017713;28;19931;-79
2022/12/05 10:12:03;;;;;;;;;;;5.40;99.90;;;;;;5034678;28;20016;-78
2022/12/05 10:14:28;;;;;;;;;;;5.40;99.90;;;;;;5030820;28;19925;-79
2022/12/05 10:16:55;;;;;;;;;;;5.40;99.90;;;;;;5030926;28;19929;-78
2022/12/05 10:19:25;;;;;;;;;;;5.30;99.90;;;;;;4997909;28;20099;-78
2022/12/05 10:21:55;;;;;;;;;;;5.40;99.90;;;;;;5015163;28;19921;-78
2022/12/05 10:24:37;;;;;;;;;;;5.30;99.90;;;;;;5010651;28;19943;-78
2022/12/05 10:27:12;;;;;;;;;;;5.30;99.90;;;;;;5015243;28;19925;-78
2022/12/05 10:29:58;;;;;;;;;;;5.30;99.90;;;;;;5015418;28;19928;-78
2022/12/05 10:32:30;;;;;;;;;;;5.30;99.90;;;;;;5010835;28;19921;-78
2022/12/05 10:35:06;;;;;;;;;;;5.30;99.90;;;;;;5014796;28;19991;-78
2022/12/05 10:37:32;;;;;;;;;;;5.30;99.90;;;;;;5017451;28;20257;-78
2022/12/05 10:39:58;;;;;;;;;;;5.30;99.90;;;;;;5016930;28;20019;-78
2022/12/05 10:42:28;;;;;;;;;;;5.30;99.90;;;;;;5032915;28;20011;-79
2022/12/05 10:45:03;;;;;;;;;;;5.30;99.90;;;;;;5020455;28;19921;-78
2022/12/05 10:47:30;;;;;;;;;;;5.30;99.90;;;;;;4998529;28;20011;-79
2022/12/05 10:49:59;;;;;;;;;;;5.40;99.90;;;;;;5013434;28;19921;-78
2022/12/05 10:52:24;;;;;;;;;;;5.30;99.90;;;;;;5013473;28;19932;-78
2022/12/05 10:54:54;;;;;;;;;;;5.20;99.90;;;;;;5007671;28;19951;-78
2022/12/05 10:57:28;;;;;;;;;;;5.20;99.90;;;;;;5028892;28;19928;-78
2022/12/05 10:59:55;;;;;;;;;;;5.30;99.90;;;;;;5013334;28;20430;-79
2022/12/05 11:02:33;;;;;;;;;;;5.30;99.90;;;;;;5013394;28;19979;-78
2022/12/05 11:04:58;;;;;;;;;;;5.30;99.90;;;;;;5001382;28;19937;-79
2022/12/05 11:07:30;;;;;;;;;;;5.30;99.90;;;;;;5013743;28;19940;-78
2022/12/05 11:09:56;;;;;;;;;;;5.30;99.90;;;;;;5014304;28;20340;-78
2022/12/05 11:12:35;;;;;;;;;;;5.20;99.90;;;;;;5013875;28;19928;-79
2022/12/05 11:15:18;;;;;;;;;;;5.30;99.90;;;;;;5012836;28;19929;-78
2022/12/05 11:17:44;;;;;;;;;;;5.30;99.90;;;;;;5013881;28;20285;-78
2022/12/05 11:20:19;;;;;;;;;;;5.30;99.90;;;;;;5014105;28;20379;-78
2022/12/05 11:22:45;;;;;;;;;;;5.30;99.90;;;;;;5029532;28;19922;-78
2022/12/05 11:25:30;;;;;;;;;;;5.20;99.90;;;;;;5014228;28;19932;-78
2022/12/05 11:27:56;;;;;;;;;;;5.20;99.90;;;;;;5029256;28;19933;-78
2022/12/05 11:30:28;;;;;;;;;;;5.30;99.90;;;;;;5012802;28;20011;-79
2022/12/05 11:33:23;;;;;;;;;;;5.30;99.90;;;;;;5013990;28;20365;-78
2022/12/05 11:35:50;;;;;;;;;;;5.20;99.90;;;;;;5012979;28;20066;-78
2022/12/05 11:38:16;;;;;;;;;;;5.30;99.90;;;;;;5012540;28;19921;-80
2022/12/05 11:41:00;;;;;;;;;;;5.20;99.90;;;;;;4996022;28;19936;-80
2022/12/05 11:43:38;;;;;;;;;;;5.30;99.90;;;;;;5012613;28;20011;-80
2022/12/05 11:46:19;;;;;;;;;;;5.20;99.90;;;;;;4996359;28;20280;-80
2022/12/05 11:49:03;;;;;;;;;;;5.30;99.90;;;;;;5028571;28;19965;-80
2022/12/05 11:51:37;;;;;;;;;;;5.30;99.90;;;;;;5028931;28;19928;-81
2022/12/05 11:54:22;;;;;;;;;;;5.30;99.90;;;;;;5013735;28;19930;-80
2022/12/05 11:56:51;;;;;;;;;;;5.30;99.90;;;;;;5030397;28;20041;-80
2022/12/05 11:59:40;;;;;;;;;;;5.30;99.90;;;;;;5012417;28;20407;-80
2022/12/05 12:02:17;;;;;;;;;;;5.30;99.90;;;;;;5018451;28;20044;-80
2022/12/05 12:04:46;;;;;;;;;;;5.30;99.90;;;;;;5031843;28;19921;-81
2022/12/05 12:07:24;;;;;;;;;;;5.30;99.90;;;;;;5033114;28;20352;-81
2022/12/05 12:10:01;;;;;;;;;;;5.30;99.90;;;;;;5013127;28;20280;-80
2022/12/05 12:12:29;;;;;;;;;;;5.30;99.90;;;;;;5013395;28;19921;-80
2022/12/05 12:14:55;;;;;;;;;;;5.30;99.90;;;;;;4998510;28;19988;-80
2022/12/05 12:17:26;;;;;;;;;;;5.30;99.90;;;;;;5020513;28;19960;-78
2022/12/05 12:20:04;;;;;;;;;;;5.30;99.90;;;;;;5020581;28;20378;-81
2022/12/05 12:22:35;;;;;;;;;;;5.20;99.90;;;;;;5018715;28;19921;-79
2022/12/05 12:25:01;;;;;;;;;;;5.30;99.90;;;;;;5001861;28;19922;-80
2022/12/05 12:27:45;;;;;;;;;;;5.30;99.90;;;;;;5033953;28;19929;-76
2022/12/05 12:30:16;;;;;;;;;;;5.30;99.90;;;;;;5030945;28;19928;-81
2022/12/05 12:32:59;;;;;;;;;;;5.30;99.90;;;;;;5018877;28;19925;-78
2022/12/05 12:35:24;;;;;;;;;;;5.30;99.90;;;;;;5048361;28;19925;-77
2022/12/05 12:37:50;;;;;;;;;;;5.30;99.90;;;;;;5053595;28;19979;-79
2022/12/05 12:40:20;;;;;;;;;;;5.30;99.90;;;;;;5052584;28;19921;-77
2022/12/05 12:42:45;;;;;;;;;;;5.30;99.90;;;;;;5035450;28;20324;-78
2022/12/05 12:45:16;;;;;;;;;;;5.30;99.90;;;;;;5048856;28;19925;-81
2022/12/05 12:48:00;;;;;;;;;;;5.30;99.90;;;;;;5016430;28;19928;-80
2022/12/05 12:50:34;;;;;;;;;;;5.40;99.90;;;;;;5047713;28;19921;-81
2022/12/05 12:53:15;;;;;;;;;;;5.30;99.90;;;;;;5032257;28;20296;-78
2022/12/05 12:55:40;;;;;;;;;;;5.30;99.90;;;;;;5014371;28;19936;-78
2022/12/05 12:58:26;;;;;;;;;;;5.30;99.90;;;;;;5031120;28;20039;-78
2022/12/05 13:01:01;;;;;;;;;;;5.30;99.90;;;;;;5031963;28;19928;-80
2022/12/05 13:03:45;;;;;;;;;;;5.40;99.90;;;;;;5031084;28;20368;-82
2022/12/05 13:06:16;;;;;;;;;;;5.30;99.90;;;;;;5029232;28;19921;-80
2022/12/05 13:08:59;;;;;;;;;;;5.30;99.90;;;;;;5023545;28;20040;-79
2022/12/05 13:11:27;;;;;;;;;;;5.40;99.90;;;;;;5012738;28;19928;-79
2022/12/05 13:13:57;;;;;;;;;;;5.30;99.90;;;;;;5012573;28;19921;-78
2022/12/05 13:16:42;;;;;;;;;;;5.30;99.90;;;;;;5014625;28;20360;-79
2022/12/05 13:19:19;;;;;;;;;;;5.40;99.90;;;;;;5028235;28;19925;-82
2022/12/05 13:21:45;;;;;;;;;;;5.30;99.90;;;;;;5011423;28;20372;-79
2022/12/05 13:24:11;;;;;;;;;;;5.40;99.90;;;;;;5028145;28;19921;-80
2022/12/05 13:26:43;;;;;;;;;;;5.30;99.90;;;;;;5010998;28;19948;-80
2022/12/05 13:29:17;;;;;;;;;;;5.30;99.90;;;;;;5013226;28;19969;-80
2022/12/05 13:31:44;;;;;;;;;;;5.30;99.90;;;;;;5015185;28;19952;-79
2022/12/05 13:34:28;;;;;;;;;;;5.30;99.90;;;;;;5014998;28;19928;-79
2022/12/05 13:42:35;;;;;;;;;;;5.30;99.90;;;;;;5014484;28;20472;-80
2022/12/05 13:45:03;;;;;;;;;;;5.30;99.90;;;;;;5031455;28;19929;-80
2022/12/05 13:47:32;;;;;;;;;;;5.30;99.90;;;;;;5031213;28;20296;-79
2022/12/05 13:50:06;;;;;;;;;;;5.30;99.90;;;;;;5032239;28;19921;-82
2022/12/05 13:52:39;;;;;;;;;;;5.30;99.90;;;;;;5051337;28;19921;-82
2022/12/05 13:55:16;;;;;;;;;;;5.30;99.90;;;;;;5035971;28;19948;-79
2022/12/05 13:57:44;;;;;;;;;;;5.30;99.90;;;;;;5034701;28;20023;-80
2022/12/05 14:00:10;;;;;;;;;;;5.30;99.90;;;;;;5015700;28;19957;-79
2022/12/05 14:02:45;;;;;;;;;;;5.30;99.90;;;;;;5014737;28;19953;-79
2022/12/05 14:05:16;;;;;;;;;;;5.30;99.90;;;;;;4998111;28;19928;-79
2022/12/05 14:07:48;;;;;;;;;;;5.30;99.90;;;;;;5015790;28;20048;-80
2022/12/05 14:10:15;;;;;;;;;;;5.30;99.90;;;;;;5047633;28;19921;-79
2022/12/05 14:12:44;;;;;;;;;;;5.30;99.90;;;;;;5033645;28;20360;-80
2022/12/05 14:15:26;;;;;;;;;;;5.30;99.90;;;;;;5023051;28;20444;-79
2022/12/05 14:18:09;;;;;;;;;;;5.30;99.90;;;;;;5034979;28;19947;-79
2022/12/05 14:20:52;;;;;;;;;;;5.30;99.90;;;;;;5032509;28;19928;-81
2022/12/05 14:23:41;;;;;;;;;;;5.30;99.90;;;;;;5050732;28;20071;-79
2022/12/05 14:26:14;;;;;;;;;;;5.30;99.90;;;;;;5017609;28;19944;-79
2022/12/05 14:28:39;;;;;;;;;;;5.30;99.90;;;;;;5034942;28;19947;-79
2022/12/05 14:31:11;;;;;;;;;;;5.30;99.90;;;;;;5035831;28;19922;-80
2022/12/05 14:33:37;;;;;;;;;;;5.30;99.90;;;;;;5030613;28;19967;-79
2022/12/05 14:36:07;;;;;;;;;;;5.30;99.90;;;;;;5013616;28;19921;-80
2022/12/05 14:38:33;;;;;;;;;;;5.30;99.90;;;;;;5013728;28;19921;-79
2022/12/05 14:41:13;;;;;;;;;;;5.30;99.90;;;;;;5019287;28;19932;-79
2022/12/05 14:43:39;;;;;;;;;;;5.30;99.90;;;;;;5013784;28;19925;-79
2022/12/05 14:46:06;;;;;;;;;;;5.30;99.90;;;;;;5015552;28;19921;-79
2022/12/05 14:48:34;;;;;;;;;;;5.30;99.90;;;;;;5017295;28;19925;-79
2022/12/05 14:51:01;;;;;;;;;;;5.30;99.90;;;;;;5016540;28;20375;-79
2022/12/05 14:53:29;;;;;;;;;;;5.30;99.90;;;;;;5050168;28;20468;-79
2022/12/05 14:56:00;;;;;;;;;;;5.30;99.90;;;;;;5034430;28;20346;-79
2022/12/05 14:58:35;;;;;;;;;;;5.30;99.90;;;;;;5034483;28;20013;-80
2022/12/05 15:01:14;;;;;;;;;;;5.30;99.90;;;;;;5032656;28;19920;-79
2022/12/05 15:03:42;;;;;;;;;;;5.30;99.90;;;;;;5049892;28;19925;-79
2022/12/05 15:06:14;;;;;;;;;;;5.30;99.90;;;;;;5033279;28;19925;-80
2022/12/05 15:08:45;;;;;;;;;;;5.30;99.90;;;;;;5032959;28;19972;-79
2022/12/05 15:11:26;;;;;;;;;;;5.30;99.90;;;;;;5049439;28;20356;-79
2022/12/05 15:13:58;;;;;;;;;;;5.30;99.90;;;;;;5014784;28;19928;-79
2022/12/05 15:16:23;;;;;;;;;;;5.30;99.90;;;;;;5014184;28;19932;-79
2022/12/05 15:18:50;;;;;;;;;;;5.30;99.90;;;;;;5012813;28;19925;-79
2022/12/05 15:21:15;;;;;;;;;;;5.30;99.90;;;;;;5014215;28;19928;-80